createdAt,value
2022-12-03T00:00:24.287Z,86.56
2022-12-03T00:02:51.446Z,85.94
2022-12-03T00:05:21.199Z,86.75
2022-12-03T00:07:49.704Z,86.63
2022-12-03T00:10:16.632Z,83.65
2022-12-03T00:12:43.453Z,83.81
2022-12-03T00:15:10.995Z,82.99
2022-12-03T00:17:39.837Z,87.99
2022-12-03T00:20:08.126Z,87.91
2022-12-03T00:22:34.998Z,88.45
2022-12-03T00:25:01.867Z,87.37
2022-12-03T00:27:29.121Z,85.27
2022-12-03T00:29:55.859Z,86.33
2022-12-03T00:32:22.640Z,85.83
2022-12-03T00:34:49.368Z,86.56
2022-12-03T00:37:16.164Z,85.26
2022-12-03T00:39:43.034Z,85.15
2022-12-03T00:42:09.798Z,83.65
2022-12-03T00:44:36.624Z,84.30
2022-12-03T00:47:04.810Z,82.57
2022-12-03T00:49:34.378Z,85.65
2022-12-03T00:52:13.634Z,84.68
2022-12-03T00:54:44.197Z,85.42
2022-12-03T00:57:15.948Z,85.69
2022-12-03T00:59:49.068Z,84.77
2022-12-03T01:05:08.039Z,84.83
2022-12-03T01:07:39.663Z,85.41
2022-12-03T01:10:07.745Z,86.14
2022-12-03T01:12:35.144Z,85.58
2022-12-03T01:15:01.887Z,84.86
2022-12-03T01:17:28.685Z,83.81
2022-12-03T01:19:55.454Z,84.50
2022-12-03T01:22:22.679Z,84.66
2022-12-03T01:24:49.465Z,84.25
2022-12-03T01:27:16.207Z,82.99
2022-12-03T01:29:42.959Z,84.66
2022-12-03T01:32:19.936Z,83.45
2022-12-03T01:34:51.444Z,81.98
2022-12-03T01:37:19.230Z,80.69
2022-12-03T01:39:46.169Z,81.40
2022-12-03T01:42:15.610Z,79.44
2022-12-03T01:44:42.651Z,79.77
2022-12-03T01:47:14.130Z,79.09
2022-12-03T01:49:46.411Z,78.75
2022-12-03T01:52:14.323Z,78.15
2022-12-03T01:54:51.549Z,78.06
2022-12-03T01:57:21.021Z,77.16
2022-12-03T01:59:48.011Z,76.46
2022-12-03T02:02:18.360Z,76.36
2022-12-03T02:04:45.299Z,75.77
2022-12-03T02:07:26.345Z,75.29
2022-12-03T02:09:53.954Z,75.34
2022-12-03T02:12:25.420Z,74.81
2022-12-03T02:14:54.412Z,74.17
2022-12-03T02:17:24.219Z,73.10
2022-12-03T02:19:54.906Z,73.80
2022-12-03T02:22:50.316Z,73.62
2022-12-03T02:25:20.653Z,76.66
2022-12-03T02:27:50.647Z,76.13
2022-12-03T02:30:20.298Z,75.66
2022-12-03T02:32:47.856Z,74.63
2022-12-03T02:35:16.291Z,76.17
2022-12-03T02:37:44.529Z,78.52
2022-12-03T02:40:13.119Z,77.62
2022-12-03T02:42:42.869Z,77.10
2022-12-03T02:45:18.081Z,76.92
2022-12-03T02:47:49.678Z,75.23
2022-12-03T02:50:34.994Z,76.78
2022-12-03T02:53:08.086Z,77.10
2022-12-03T02:55:37.387Z,76.96
2022-12-03T02:58:05.489Z,77.33
2022-12-03T03:00:32.650Z,78.56
2022-12-03T03:02:59.959Z,77.62
2022-12-03T03:05:26.791Z,76.65
2022-12-03T03:07:53.606Z,76.04
2022-12-03T03:10:22.211Z,75.02
2022-12-03T03:12:49.487Z,74.72
2022-12-03T03:15:16.337Z,74.27
2022-12-03T03:17:46.051Z,73.62
2022-12-03T03:20:13.017Z,73.40
2022-12-03T03:22:41.937Z,72.90
2022-12-03T03:25:14.100Z,72.62
2022-12-03T03:27:41.586Z,72.03
2022-12-03T03:30:09.267Z,71.87
2022-12-03T03:32:36.595Z,72.17
2022-12-03T03:35:03.555Z,71.82
2022-12-03T03:37:30.672Z,71.85
2022-12-03T03:39:57.441Z,71.17
2022-12-03T03:42:24.398Z,70.86
2022-12-03T03:44:51.620Z,71.07
2022-12-03T03:47:19.187Z,71.04
2022-12-03T03:49:48.290Z,70.64
2022-12-03T03:52:15.154Z,70.94
2022-12-03T03:54:42.019Z,70.81
2022-12-03T03:57:08.821Z,70.48
2022-12-03T03:59:35.562Z,70.90
2022-12-03T04:02:02.496Z,70.55
2022-12-03T04:04:31.026Z,70.94
2022-12-03T04:06:57.848Z,70.38
2022-12-03T04:09:24.591Z,70.44
2022-12-03T04:12:09.999Z,70.99
2022-12-03T04:14:36.742Z,70.43
2022-12-03T04:17:03.722Z,70.30
2022-12-03T04:19:30.621Z,70.74
2022-12-03T04:22:15.873Z,70.62
2022-12-03T04:24:43.303Z,69.28
2022-12-03T04:27:33.183Z,71.72
2022-12-03T04:29:59.871Z,71.75
2022-12-03T04:32:45.032Z,71.14
2022-12-03T04:35:32.692Z,71.12
2022-12-03T04:37:59.496Z,71.00
2022-12-03T04:40:44.675Z,72.55
2022-12-03T04:43:11.405Z,73.00
2022-12-03T04:45:38.565Z,73.13
2022-12-03T04:48:06.177Z,72.23
2022-12-03T04:50:32.948Z,72.27
2022-12-03T04:52:59.730Z,71.85
2022-12-03T04:55:26.501Z,71.98
2022-12-03T04:57:53.377Z,72.03
2022-12-03T05:00:20.292Z,74.06
2022-12-03T05:02:47.114Z,73.77
2022-12-03T05:05:14.037Z,73.90
2022-12-03T05:07:40.796Z,76.86
2022-12-03T05:10:08.177Z,78.93
2022-12-03T05:12:35.278Z,79.73
2022-12-03T05:15:05.984Z,76.59
2022-12-03T05:17:32.871Z,75.50
2022-12-03T05:20:18.741Z,77.36
2022-12-03T05:22:45.551Z,76.90
2022-12-03T05:25:12.305Z,78.07
2022-12-03T05:27:39.108Z,80.17
2022-12-03T05:30:06.190Z,80.69
2022-12-03T05:32:33.134Z,81.52
2022-12-03T05:35:00.094Z,84.00
2022-12-03T05:37:26.962Z,84.40
2022-12-03T05:39:54.171Z,83.31
2022-12-03T05:42:39.733Z,84.90
2022-12-03T05:45:06.934Z,82.96
2022-12-03T05:47:33.807Z,80.97
2022-12-03T05:50:01.869Z,82.27
2022-12-03T05:52:28.620Z,82.96
2022-12-03T05:54:55.673Z,82.88
2022-12-03T05:57:24.865Z,81.39
2022-12-03T05:59:51.685Z,82.40
2022-12-03T06:02:18.574Z,84.26
2022-12-03T06:04:45.532Z,84.49
2022-12-03T06:07:14.090Z,85.88
2022-12-03T06:09:41.395Z,86.02
2022-12-03T06:12:11.215Z,85.27
2022-12-03T06:14:38.083Z,89.44
2022-12-03T06:17:05.359Z,86.82
2022-12-03T06:19:32.058Z,89.19
2022-12-03T06:21:58.892Z,87.42
2022-12-03T06:24:25.743Z,87.95
2022-12-03T06:26:52.559Z,87.49
2022-12-03T06:29:19.432Z,88.41
2022-12-03T06:31:46.460Z,89.96
2022-12-03T06:34:14.384Z,89.01
2022-12-03T06:36:41.162Z,86.54
2022-12-03T06:39:07.985Z,88.67
2022-12-03T06:41:34.836Z,87.64
2022-12-03T06:44:01.686Z,87.42
2022-12-03T06:46:28.536Z,88.56
2022-12-03T06:48:55.351Z,89.18
2022-12-03T06:51:22.131Z,88.31
2022-12-03T06:53:48.998Z,88.02
2022-12-03T06:56:18.918Z,89.13
2022-12-03T06:58:48.798Z,89.60
2022-12-03T07:01:15.681Z,90.00
2022-12-03T07:03:42.506Z,90.97
2022-12-03T07:06:09.423Z,85.35
2022-12-03T07:08:36.158Z,88.97
2022-12-03T07:11:02.892Z,90.67
2022-12-03T07:13:29.702Z,90.45
2022-12-03T07:15:56.649Z,87.50
2022-12-03T07:18:23.438Z,86.44
2022-12-03T07:20:50.149Z,87.51
2022-12-03T07:23:17.023Z,88.64
2022-12-03T07:25:43.848Z,88.76
2022-12-03T07:28:10.795Z,88.69
2022-12-03T07:30:37.527Z,87.04
2022-12-03T07:33:04.336Z,87.41
2022-12-03T07:35:31.162Z,87.76
2022-12-03T07:37:57.887Z,89.06
2022-12-03T07:40:24.741Z,87.33
2022-12-03T07:42:51.494Z,86.59
2022-12-03T07:45:18.325Z,88.75
2022-12-03T07:47:45.090Z,90.37
2022-12-03T07:50:12.130Z,89.90
2022-12-03T07:52:38.893Z,87.94
2022-12-03T07:55:05.890Z,91.33
2022-12-03T07:57:32.799Z,92.10
2022-12-03T07:59:59.569Z,88.46
2022-12-03T08:02:26.469Z,90.38
2022-12-03T08:04:53.559Z,92.92
2022-12-03T08:07:20.505Z,92.64
2022-12-03T08:09:47.231Z,89.82
2022-12-03T08:12:18.428Z,93.17
2022-12-03T08:14:45.173Z,92.21
2022-12-03T08:17:13.054Z,91.69
2022-12-03T08:19:41.379Z,92.35
2022-12-03T08:22:13.241Z,94.01
2022-12-03T08:24:40.055Z,94.16
2022-12-03T08:27:18.226Z,91.91
2022-12-03T08:29:45.372Z,96.67
2022-12-03T08:32:12.598Z,95.92
2022-12-03T08:34:40.728Z,94.44
2022-12-03T08:37:11.674Z,94.46
2022-12-03T08:39:43.896Z,92.60
2022-12-03T08:42:29.348Z,93.50
2022-12-03T08:44:56.827Z,93.04
2022-12-03T08:47:24.509Z,92.08
2022-12-03T08:49:54.144Z,90.44
2022-12-03T08:52:21.809Z,93.65
2022-12-03T08:54:55.076Z,92.83
2022-12-03T08:57:26.152Z,95.56
2022-12-03T08:59:56.419Z,91.92
2022-12-03T09:02:28.939Z,92.41
2022-12-03T09:04:56.245Z,91.22
2022-12-03T09:07:23.384Z,92.15
2022-12-03T09:09:50.175Z,91.62
2022-12-03T09:12:16.905Z,91.86
2022-12-03T09:14:43.632Z,90.35
2022-12-03T09:17:10.698Z,91.50
2022-12-03T09:19:44.264Z,90.46
2022-12-03T09:22:13.561Z,88.24
2022-12-03T09:24:40.299Z,88.98
2022-12-03T09:27:06.994Z,90.25
2022-12-03T09:29:33.746Z,92.54
2022-12-03T09:32:00.599Z,93.44
2022-12-03T09:34:27.474Z,90.86
2022-12-03T09:36:54.369Z,94.09
2022-12-03T09:39:21.185Z,90.44
2022-12-03T09:41:48.024Z,90.61
2022-12-03T09:44:17.811Z,91.25
2022-12-03T09:46:46.671Z,92.61
2022-12-03T09:49:16.316Z,89.71
2022-12-03T09:51:43.895Z,91.75
2022-12-03T09:54:13.172Z,87.82
2022-12-03T09:56:40.029Z,87.79
2022-12-03T09:59:12.830Z,87.34
2022-12-03T10:01:39.651Z,88.44
2022-12-03T10:04:06.555Z,88.29
2022-12-03T10:06:33.438Z,87.24
2022-12-03T10:09:03.208Z,88.37
2022-12-03T10:11:30.534Z,87.13
2022-12-03T10:13:57.962Z,85.46
2022-12-03T10:16:25.445Z,86.22
2022-12-03T10:18:56.292Z,88.75
2022-12-03T10:21:31.440Z,87.69
2022-12-03T10:24:17.057Z,85.81
2022-12-03T10:26:44.604Z,85.59
2022-12-03T10:29:14.402Z,85.20
2022-12-03T10:31:41.223Z,84.99
2022-12-03T10:34:09.592Z,85.36
2022-12-03T10:36:36.400Z,85.35
2022-12-03T10:39:11.150Z,85.23
2022-12-03T10:41:38.694Z,86.46
2022-12-03T10:44:15.121Z,83.38
2022-12-03T10:46:42.052Z,81.53
2022-12-03T10:49:15.177Z,83.41
2022-12-03T10:51:42.401Z,85.42
2022-12-03T10:54:14.720Z,84.74
2022-12-03T10:56:41.475Z,83.87
2022-12-03T10:59:13.259Z,82.71
2022-12-03T11:01:40.205Z,85.51
2022-12-03T11:04:09.868Z,85.38
2022-12-03T11:06:36.681Z,83.90
2022-12-03T11:09:08.738Z,84.12
2022-12-03T11:11:36.505Z,85.61
2022-12-03T11:14:04.312Z,85.17
2022-12-03T11:16:39.951Z,84.32
2022-12-03T11:19:12.689Z,84.80
2022-12-03T11:21:59.765Z,84.73
2022-12-03T11:24:26.542Z,87.20
2022-12-03T11:26:53.235Z,85.89
2022-12-03T11:29:39.883Z,86.82
2022-12-03T11:32:07.068Z,85.43
2022-12-03T11:34:33.775Z,86.58
2022-12-03T11:37:12.489Z,88.32
2022-12-03T11:39:45.556Z,87.61
2022-12-03T11:42:25.590Z,88.47
2022-12-03T11:45:04.856Z,86.69
2022-12-03T11:47:39.718Z,86.36
2022-12-03T11:50:24.794Z,88.41
2022-12-03T11:53:02.550Z,88.49
2022-12-03T11:55:49.178Z,86.08
2022-12-03T11:58:17.704Z,86.54
2022-12-03T12:00:51.478Z,85.89
2022-12-03T12:03:33.476Z,86.37
2022-12-03T12:06:00.514Z,87.98
2022-12-03T12:08:27.221Z,86.73
2022-12-03T12:10:54.003Z,86.83
2022-12-03T12:13:26.990Z,86.81
2022-12-03T12:15:54.047Z,88.01
2022-12-03T12:18:36.032Z,89.46
2022-12-03T12:21:21.660Z,88.50
2022-12-03T12:23:48.371Z,88.65
2022-12-03T12:26:15.051Z,90.16
2022-12-03T12:28:41.806Z,90.65
2022-12-03T12:31:12.026Z,89.13
2022-12-03T12:33:38.882Z,89.09
2022-12-03T12:36:09.579Z,89.50
2022-12-03T12:38:36.395Z,90.10
2022-12-03T12:41:07.027Z,90.25
2022-12-03T12:43:36.189Z,91.03
2022-12-03T12:46:45.584Z,90.56
2022-12-03T12:48:59.849Z,91.53
2022-12-03T12:51:26.877Z,89.60
2022-12-03T12:53:54.071Z,89.08
2022-12-03T12:56:24.029Z,90.42
2022-12-03T12:58:51.173Z,91.67
2022-12-03T13:01:29.781Z,90.77
2022-12-03T13:03:57.163Z,88.89
2022-12-03T13:06:26.135Z,88.34
2022-12-03T13:08:53.341Z,89.76
2022-12-03T13:11:25.901Z,92.42
2022-12-03T13:13:52.836Z,89.06
2022-12-03T13:16:22.341Z,87.42
2022-12-03T13:18:50.371Z,91.89
2022-12-03T13:21:32.339Z,91.43
2022-12-03T13:23:59.341Z,91.69
2022-12-03T13:26:39.787Z,92.54
2022-12-03T13:29:11.510Z,91.97
2022-12-03T13:31:43.449Z,93.01
2022-12-03T13:34:16.697Z,91.74
2022-12-03T13:36:44.573Z,94.60
2022-12-03T13:39:17.569Z,92.32
2022-12-03T13:42:02.990Z,93.89
2022-12-03T13:44:31.468Z,93.56
2022-12-03T13:47:01.004Z,94.18
2022-12-03T13:49:29.361Z,92.21
2022-12-03T13:51:56.121Z,90.94
2022-12-03T13:54:23.993Z,91.48
2022-12-03T13:56:50.865Z,91.13
2022-12-03T13:59:20.359Z,89.56
2022-12-03T14:01:49.918Z,90.85
2022-12-03T14:04:16.690Z,91.17
2022-12-03T14:06:43.587Z,89.52
2022-12-03T14:09:10.356Z,89.79
2022-12-03T14:11:55.968Z,89.78
2022-12-03T14:14:22.678Z,90.41
2022-12-03T14:16:49.516Z,91.51
2022-12-03T14:19:16.377Z,88.53
2022-12-03T14:21:43.246Z,88.78
2022-12-03T14:24:10.210Z,88.26
2022-12-03T14:26:36.962Z,88.96
2022-12-03T14:29:08.563Z,88.86
2022-12-03T14:31:35.794Z,87.14
2022-12-03T14:34:02.715Z,87.93
2022-12-03T14:36:29.575Z,87.22
2022-12-03T14:38:56.332Z,87.23
2022-12-03T14:41:41.736Z,87.00
2022-12-03T14:44:08.585Z,86.81
2022-12-03T14:46:35.404Z,87.40
2022-12-03T14:49:02.208Z,87.67
2022-12-03T14:51:28.985Z,86.61
2022-12-03T14:53:55.752Z,89.50
2022-12-03T14:56:22.601Z,87.80
2022-12-03T14:58:49.455Z,88.00
2022-12-03T15:01:16.323Z,87.81
2022-12-03T15:03:43.237Z,88.64
2022-12-03T15:06:10.082Z,90.44
2022-12-03T15:08:36.876Z,87.50
2022-12-03T15:11:03.878Z,89.76
2022-12-03T15:13:30.646Z,90.43
2022-12-03T15:15:57.522Z,89.58
2022-12-03T15:18:24.324Z,89.25
2022-12-03T15:20:51.174Z,87.29
2022-12-03T15:23:18.220Z,86.27
2022-12-03T15:25:44.969Z,87.92
2022-12-03T15:28:11.794Z,87.00
2022-12-03T15:30:38.573Z,87.60
2022-12-03T15:33:05.724Z,86.55
2022-12-03T15:35:32.817Z,87.10
2022-12-03T15:37:59.904Z,87.80
2022-12-03T15:40:27.057Z,87.84
2022-12-03T15:42:54.068Z,89.18
2022-12-03T15:45:20.931Z,89.50
2022-12-03T15:47:47.632Z,88.41
2022-12-03T15:50:14.590Z,88.70
2022-12-03T15:52:41.424Z,90.34
2022-12-03T15:55:08.436Z,89.99
2022-12-03T15:57:35.250Z,91.02
2022-12-03T16:00:02.185Z,90.90
2022-12-03T16:02:34.191Z,90.58
2022-12-03T16:05:05.525Z,87.86
2022-12-03T16:07:32.281Z,89.43
2022-12-03T16:09:59.391Z,90.65
2022-12-03T16:12:26.081Z,89.00
2022-12-03T16:14:52.864Z,89.54
2022-12-03T16:17:19.613Z,87.87
2022-12-03T16:19:46.553Z,90.27
2022-12-03T16:22:13.431Z,88.68
2022-12-03T16:24:40.286Z,90.15
2022-12-03T16:27:07.181Z,90.71
2022-12-03T16:29:33.982Z,91.04
2022-12-03T16:32:00.789Z,91.11
2022-12-03T16:34:27.500Z,89.24
2022-12-03T16:36:54.265Z,90.49
2022-12-03T16:39:21.024Z,90.60
2022-12-03T16:41:47.729Z,89.81
2022-12-03T16:44:30.797Z,90.90
2022-12-03T16:46:57.611Z,90.48
2022-12-03T16:49:24.431Z,91.54
2022-12-03T16:51:51.168Z,90.72
2022-12-03T16:54:17.959Z,91.14
2022-12-03T16:56:44.675Z,89.80
2022-12-03T16:59:11.439Z,91.53
2022-12-03T17:01:38.418Z,92.54
2022-12-03T17:04:05.261Z,92.42
2022-12-03T17:06:31.998Z,91.78
2022-12-03T17:08:58.730Z,91.26
2022-12-03T17:11:25.523Z,91.40
2022-12-03T17:13:52.312Z,91.75
2022-12-03T17:16:19.172Z,90.78
2022-12-03T17:18:45.993Z,92.28
2022-12-03T17:21:12.773Z,92.32
2022-12-03T17:23:39.539Z,91.40
2022-12-03T17:26:06.387Z,92.79
2022-12-03T17:28:33.151Z,93.63
2022-12-03T17:30:59.999Z,90.24
2022-12-03T17:33:26.709Z,90.29
2022-12-03T17:35:53.493Z,89.36
2022-12-03T17:38:20.228Z,91.69
2022-12-03T17:40:46.989Z,92.08
2022-12-03T17:43:13.732Z,88.26
2022-12-03T17:45:40.775Z,88.16
2022-12-03T17:48:08.488Z,91.53
2022-12-03T17:50:35.430Z,88.33
2022-12-03T17:53:04.370Z,90.96
2022-12-03T17:55:38.535Z,90.61
2022-12-03T17:58:11.084Z,90.94
2022-12-03T18:00:37.833Z,89.53
2022-12-03T18:03:06.639Z,90.04
2022-12-03T18:05:33.471Z,90.73
2022-12-03T18:08:00.326Z,89.81
2022-12-03T18:10:27.144Z,88.92
2022-12-03T18:12:58.324Z,89.21
2022-12-03T18:15:28.119Z,88.87
2022-12-03T18:17:54.890Z,87.38
2022-12-03T18:20:21.603Z,86.76
2022-12-03T18:22:48.318Z,88.38
2022-12-03T18:25:15.274Z,85.59
2022-12-03T18:27:42.094Z,89.10
2022-12-03T18:30:09.056Z,86.23
2022-12-03T18:32:35.788Z,86.50
2022-12-03T18:35:02.532Z,88.23
2022-12-03T18:37:30.034Z,88.23
2022-12-03T18:39:57.718Z,88.04
2022-12-03T18:42:25.130Z,88.96
2022-12-03T18:44:53.055Z,88.74
2022-12-03T18:47:21.519Z,85.38
2022-12-03T18:49:48.288Z,87.31
2022-12-03T18:52:16.472Z,87.65
2022-12-03T18:54:43.360Z,86.49
2022-12-03T18:57:10.133Z,86.24
2022-12-03T18:59:37.169Z,86.08
2022-12-03T19:02:04.094Z,85.04
2022-12-03T19:04:31.019Z,84.57
2022-12-03T19:06:57.923Z,82.82
2022-12-03T19:09:24.707Z,82.92
2022-12-03T19:11:51.503Z,84.49
2022-12-03T19:14:18.293Z,83.14
2022-12-03T19:16:45.077Z,82.31
2022-12-03T19:19:11.853Z,84.48
2022-12-03T19:21:38.623Z,86.02
2022-12-03T19:24:33.453Z,87.10
2022-12-03T19:26:54.890Z,85.87
2022-12-03T19:29:24.654Z,85.56
2022-12-03T19:31:51.756Z,84.97
2022-12-03T19:34:18.659Z,84.48
2022-12-03T19:36:45.499Z,85.80
2022-12-03T19:39:12.292Z,88.41
2022-12-03T19:41:39.706Z,88.12
2022-12-03T19:44:10.778Z,88.40
2022-12-03T19:46:37.783Z,88.28
2022-12-03T19:49:05.181Z,89.83
2022-12-03T19:51:35.102Z,89.09
2022-12-03T19:54:03.231Z,88.73
2022-12-03T19:56:33.014Z,87.69
2022-12-03T19:58:59.809Z,88.64
2022-12-03T20:01:28.134Z,89.24
2022-12-03T20:03:56.403Z,88.55
2022-12-03T20:06:24.923Z,88.17
2022-12-03T20:08:55.600Z,87.99
2022-12-03T20:11:23.831Z,88.44
2022-12-03T20:13:55.222Z,88.94
2022-12-03T20:16:22.162Z,88.55
2022-12-03T20:18:49.796Z,90.39
2022-12-03T20:21:17.489Z,89.56
2022-12-03T20:23:44.459Z,89.59
2022-12-03T20:26:12.963Z,88.53
2022-12-03T20:28:39.705Z,87.24
2022-12-03T20:31:10.865Z,87.78
2022-12-03T20:33:38.348Z,88.45
2022-12-03T20:36:05.506Z,86.74
2022-12-03T20:38:32.298Z,85.49
2022-12-03T20:41:02.605Z,87.49
2022-12-03T20:43:29.589Z,87.31
2022-12-03T20:46:02.452Z,85.86
2022-12-03T20:48:29.810Z,85.09
2022-12-03T20:50:56.566Z,83.15
2022-12-03T20:53:25.157Z,81.97
2022-12-03T20:55:56.543Z,82.99
2022-12-03T20:58:23.326Z,85.49
2022-12-03T21:00:50.233Z,84.34
2022-12-03T21:03:17.156Z,84.89
2022-12-03T21:05:46.551Z,83.50
2022-12-03T21:08:13.447Z,84.08
2022-12-03T21:10:47.334Z,82.93
2022-12-03T21:13:14.955Z,84.67
2022-12-03T21:15:43.144Z,88.12
2022-12-03T21:18:11.683Z,90.40
2022-12-03T21:20:45.271Z,87.79
2022-12-03T21:23:12.368Z,87.22
2022-12-03T21:25:39.309Z,88.36
2022-12-03T21:28:07.197Z,88.50
2022-12-03T21:30:34.530Z,87.99
2022-12-03T21:33:01.226Z,87.37
2022-12-03T21:35:28.094Z,88.36
2022-12-03T21:37:55.002Z,87.32
2022-12-03T21:40:22.912Z,86.30
2022-12-03T21:42:49.571Z,89.18
2022-12-03T21:45:16.429Z,89.50
2022-12-03T21:47:46.255Z,89.25
2022-12-03T21:50:13.092Z,89.91
2022-12-03T21:52:40.128Z,90.05
2022-12-03T21:55:07.095Z,88.71
2022-12-03T21:57:37.012Z,90.15
2022-12-03T22:00:08.003Z,91.23
2022-12-03T22:02:34.858Z,93.12
2022-12-03T22:05:01.769Z,92.06
2022-12-03T22:07:28.622Z,91.76
2022-12-03T22:09:55.692Z,91.62
2022-12-03T22:12:22.633Z,94.15
2022-12-03T22:14:49.421Z,92.12
2022-12-03T22:17:16.318Z,91.31
2022-12-03T22:19:42.989Z,90.62
2022-12-03T22:22:09.751Z,89.26
2022-12-03T22:24:36.487Z,89.57
2022-12-03T22:27:04.325Z,88.34
2022-12-03T22:29:31.218Z,88.46
2022-12-03T22:31:57.923Z,88.04
2022-12-03T22:34:24.716Z,87.60
2022-12-03T22:36:51.411Z,86.26
2022-12-03T22:39:18.187Z,88.75
2022-12-03T22:41:44.883Z,88.91
2022-12-03T22:44:11.740Z,88.03
2022-12-03T22:46:38.619Z,85.93
2022-12-03T22:49:07.677Z,91.81
2022-12-03T22:51:34.973Z,90.39
2022-12-03T22:54:02.232Z,89.45
2022-12-03T22:56:29.816Z,93.35
2022-12-03T22:58:56.520Z,91.01
2022-12-03T23:01:32.692Z,91.82
2022-12-03T23:04:00.107Z,91.30
2022-12-03T23:06:27.007Z,90.12
2022-12-03T23:08:54.287Z,91.65
2022-12-03T23:11:21.347Z,90.49
2022-12-03T23:13:48.326Z,88.64
2022-12-03T23:16:26.412Z,91.04
2022-12-03T23:18:53.293Z,90.65
2022-12-03T23:21:28.569Z,90.87
2022-12-03T23:23:56.444Z,92.07
2022-12-03T23:26:23.224Z,88.15
2022-12-03T23:28:50.281Z,89.51
2022-12-03T23:31:17.032Z,89.28
2022-12-03T23:33:44.166Z,91.12
2022-12-03T23:36:11.695Z,92.57
2022-12-03T23:38:38.633Z,90.73
2022-12-03T23:41:06.230Z,92.40
2022-12-03T23:43:33.218Z,91.76
2022-12-03T23:46:10.550Z,91.93
2022-12-03T23:48:37.733Z,92.05
2022-12-03T23:51:05.211Z,93.53
2022-12-03T23:53:32.028Z,94.09
2022-12-03T23:55:58.743Z,92.17
2022-12-03T23:58:25.628Z,93.98
